Fairchild, Wisconsin
Current Conditions -  °F | °C
As of 6:55 PM on Tuesday 21 Oct 2014 (Local Time) from KBCK Reporting Station
Clear Clear  
Wind Chill: 42°   Ceiling: Unl
Heat Index: 45°   Visibility: 10mi
Dew Point: 35°   Wind: 5mph
Humidity: 68%   Direction: 100°E
Pressure: 30.21"   Gusts: NA
Location:  44.6°N, 90.96°W
Report Text: KBCK 212355Z AUTO 10004KT 10SM CLR 07/02 A3021 RMK AO2 T00710016 10134 20071
Loading
Personal Weather Stations






























Interactive Weather Map
Tropical Storm Tracking
New forecast layout! Learn more

10-Day Weather Forecast

Advertisements
Track Severe Weather on mobile